作者查詢 / Ivers
作者 Ivers 在 PTT 全部看板的留言(推文), 共5649則
限定看板:全部
看板排序:
全部Cubs2856Baseball1062MLB700Angels202NBA137LineGames119RedSox103Mariners35SFGiants31Stock28Astros23Lakers20GoldenEagles16Grizzlies16Cavaliers14NY-Yankees14FORMULA113Knicks12UTAH-JAZZ12Militarylife11mobile-game11NY-Mets11Rays10HCKuo8NBAEasyChat8Cardinals7PHX-Suns7Tech_Job7Thunder7Tsao7basketballTW6Chan_Mou6Braves5LaClippers5NBA_Film5Rangers5Blue_Jays4G-S-WARRIORS4MIN-Twins4Nationals4Spurs4WorldCup4YAKYU4A-MEI3CMWang3LeBronJames3PCSH91_3053StephenCurry3A-Rod2ask2Brewers2DET_Tigers2Gossiping2Lions2Marlins2Monkeys2PACERS2Rockies2share2Whales2young-jiang2AIR_JORDAN1Asian-MLB1Athletics1BabyBears1BaseballXXXX1BLAZERS1CCF1CHSH-3191CLHu1CourtBasketB1Dodgers1FJU-ACCR941HatePolitics1Hawks1Jacky1joke1K_baseball1Kaohsiung1Mechanical1MiamiHeat1MingDao32H11MLBGAME1NCU97ME-B1NDHU_ACC_5TH1NeedFood1NTUEOE_R306A1Padres1Pelicans1PlayBaseball1Raptors1RnB_Soul1Romances1sex1SHAQ1SoftbankHawk1SP2_Basket1TaichungBun1Tennis1Thailand1TKU_HisSB1WCDragons1<< 收起看板(102)
99F推: Canario k05/01 18:12
108F推: 西川愛也 安打 4:005/01 18:16
112F推: 渡部聖弥 FO05/01 18:18
114F推: 寺地隆成 投滾05/01 18:21
115F推: 石川慎吾 游滾05/01 18:22
116F推: Soto hit05/01 18:24
117F推: 井上広大 中飛05/01 18:26
118F推: 東妻上場 Nevin 2bbbbb05/01 18:28
120F推: 長谷川信哉 游滾05/01 18:29
121F推: 平沢大河 h05/01 18:31
125F推: 石井一成 bb 滿壘05/01 18:34
621F推: 西武教練在笑甚麼04/30 19:31
8F推: 203104/18 12:29
110F推: 兄弟打得贏這支道奇10/18 10:27
22F推: 紅林弘太郎k10/12 13:04
29F推: 万波中正 k10/12 13:09
31F推: 松本剛 k10/12 13:10
32F推: Reyes BB10/12 13:12
42F推: 郡司裕也 hh10/12 13:18
48F推: 清宮幸太郎 kkk10/12 13:21
54F推: 杉本裕太郎 hr 1:010/12 13:24
62F推: 頓宮裕真 GO10/12 13:26
64F推: 西野真弘 GO10/12 13:28
66F推: 中川圭太 FO10/12 13:29
69F推: 山縣秀 HHH10/12 13:32
71F推: 田宮裕涼 SH10/12 13:33
78F推: 水谷瞬 RBI SINGLE 1:110/12 13:35
84F推: 水野達稀 點失敗10/12 13:37
85F推: 万波中正FO10/12 13:38
86F推: 宗佑磨 GO10/12 13:40
87F推: 若月健矢 2B10/12 13:41
91F推: 廣岡大志 內安10/12 13:45
95F推: 太田椋 K10/12 13:49
112F推: 紅林弘太郎 三分砲 歐力士4:1火腿10/12 13:51
115F推: 杉本裕太郎 GO10/12 13:52
119F推: 松本剛 k10/12 13:55
124F推: Reyes HHH10/12 13:57
129F推: 郡司裕也 HBP10/12 14:00
143F推: 清宮幸太郎清壘 4:310/12 14:02
167F推: 山縣秀 K10/12 14:04
171F→: 田宮裕涼 一球死10/12 14:05
180F推: 頓宮裕真牆前接殺10/12 14:08
189F→: 西野真弘 GO10/12 14:09
197F推: 中川圭太 FO10/12 14:11
303F推: HBP10/12 14:53
330F推: 頓宮裕真FO10/12 14:58
341F推: 西野真弘KKKKKKKK10/12 15:03
351F推: 換投 玉井10/12 15:06
355F→: 中川圭太GO10/12 15:07
359F推: 水谷瞬 LINE OUT10/12 15:09
366F推: 水野達稀 HHHH10/12 15:11
375F推: 万波中正HHHHHHHHHHH10/12 15:13
383F推: 馬丁尼茲FO10/12 15:15
397F推: Reyes FO10/12 15:17
125F推: 牧原大成 GO03/30 14:23
129F推: Richard KKKKKKKK03/30 14:24
133F推: DOWNS KKKKKKKK 16003/30 14:28
135F推: 佐藤都志也 FO03/30 14:31
136F推: Polanco BB03/30 14:34
139F推: 岡 大海 HHHH03/30 14:35
143F推: 中村 奨吾 BB03/30 14:37
152F推: 和田 康士朗 SF 6:403/30 14:41
162F推: 髙部 瑛斗 HHH 7:403/30 14:43
167F推: 換松本晴03/30 14:45
170F推: 友杉 篤輝 平飛03/30 14:47
176F推: 鈴木昭太救援03/30 14:49
184F推: 周東佑京 KKKKKKKKK03/30 14:53
185F推: 近藤健介 HHHH03/30 14:54
191F推: 柳田悠岐 鳥飛03/30 14:59
196F推: 山川穂高 FO03/30 15:04
8F推: 打擊率看天下01/05 10:20
23F推: 日幣貶值成這樣沒人要賺11/21 22:08
2F推: 芝加哥大市場也很難拿冠10/20 12:09
62F推: 郡司裕也內滾10/12 13:21
63F推: Polanco 安打10/12 13:24
67F推: 佐藤都志也內滾 挑戰10/12 13:26
71F推: 中村奨吾kkk10/12 13:29
72F推: 友杉篤輝平飛接殺10/12 13:31
73F推: 上川畑大悟kkkkk10/12 13:33
78F推: 万波中正安打10/12 13:35
81F推: 松本剛野選10/12 13:37
83F推: 伏見寅威投滾 3out10/12 13:38
84F推: 藤原恭大single10/12 13:40
88F推: 荻野貴司dp10/12 13:42
89F推: 藤岡裕大鳥安10/12 13:44
90F推: 岡大海界外飛 3out10/12 13:46
91F推: 水野達稀kkkkkkkk10/12 13:48
93F推: 淺間大基kkkkkkk10/12 13:50
94F推: 清宮幸太郎內滾 3out10/12 13:52
95F推: Soto內飛10/12 13:54
97F推: Polanco內滾10/12 13:56
99F推: 佐藤都志也內飛 3out10/12 13:58
101F推: Reyes安打10/12 13:59
104F推: 郡司裕也左飛10/12 14:01
105F推: 上川畑大悟dp 3out10/12 14:04
112F推: 中村奨吾炸裂 1:010/12 14:06
124F推: 友杉篤輝車布邊二壘安打10/12 14:08
141F推: 藤原恭大犧牲觸擊10/12 14:09
155F推: 荻野貴司沒點到三壘自殺 自己界外飛球結束這半局10/12 14:11